Time;durP1;ratioP1;P1;durP2;ratioP2;P2;SDS_P1;SDS_P2;PMS_P1;PMS_P2;Temp;Humidity;BMP_temperature;BMP_pressure;BME280_temperature;BME280_humidity;BME280_pressure;Samples;Min_cycle;Max_cycle;Signal;HPM_P1;HPM_P2
2022/06/02 00:00:12;;;;;;;12.18;9.82;;;8.90;99.90;;;;;;4991978;28;20046;-81
2022/06/02 00:03:05;;;;;;;14.05;10.25;;;8.80;99.90;;;;;;4973205;28;20487;-81
2022/06/02 00:05:33;;;;;;;11.18;9.38;;;8.80;99.90;;;;;;4989252;28;20052;-81
2022/06/02 00:08:19;;;;;;;12.00;9.68;;;8.70;99.90;;;;;;4985399;28;20038;-82
2022/06/02 00:11:06;;;;;;;12.68;9.68;;;8.70;99.90;;;;;;4975054;28;20521;-82
2022/06/02 00:13:41;;;;;;;14.05;9.40;;;8.70;99.90;;;;;;4969270;28;20049;-82
2022/06/02 00:16:15;;;;;;;14.57;10.30;;;8.70;99.90;;;;;;4989898;28;20620;-81
2022/06/02 00:18:46;;;;;;;15.00;9.77;;;8.70;99.90;;;;;;4972634;28;20048;-81
2022/06/02 00:21:46;;;;;;;13.85;9.57;;;8.60;99.90;;;;;;4989217;28;20125;-82
2022/06/02 00:24:40;;;;;;;14.50;9.68;;;8.60;99.90;;;;;;4978602;28;20062;-82
2022/06/02 00:27:42;;;;;;;12.43;9.55;;;8.60;99.90;;;;;;4971955;28;20092;-82
2022/06/02 00:30:34;;;;;;;17.02;10.60;;;8.60;99.90;;;;;;4988997;28;20972;-82
2022/06/02 00:33:38;;;;;;;14.60;10.93;;;8.60;99.90;;;;;;4990323;28;20088;-83
2022/06/02 00:36:17;;;;;;;14.32;10.13;;;8.60;99.90;;;;;;4989589;28;20556;-82
2022/06/02 00:38:43;;;;;;;13.63;10.55;;;8.50;99.90;;;;;;4989634;28;20058;-83
2022/06/02 00:41:53;;;;;;;13.65;10.85;;;8.50;99.90;;;;;;4969759;28;20526;-81
2022/06/02 00:44:40;;;;;;;15.70;11.38;;;8.50;99.90;;;;;;4909584;29;20044;-82
2022/06/02 00:47:28;;;;;;;13.20;10.55;;;8.50;99.90;;;;;;4973153;28;20077;-83
2022/06/02 00:50:23;;;;;;;14.73;9.98;;;8.50;99.90;;;;;;4970299;28;20050;-82
2022/06/02 00:53:03;;;;;;;15.25;10.70;;;8.50;99.90;;;;;;5002333;28;20060;-82
2022/06/02 00:59:16;;;;;;;15.73;10.98;;;8.40;99.90;;;;;;4989470;28;20445;-81
2022/06/02 01:01:41;;;;;;;15.18;11.27;;;8.40;99.90;;;;;;4972174;28;20057;-82
2022/06/02 01:04:14;;;;;;;15.65;10.93;;;8.40;99.90;;;;;;4954727;28;20505;-82
2022/06/02 01:06:58;;;;;;;15.77;11.05;;;8.30;99.90;;;;;;4987763;28;20077;-82
2022/06/02 01:10:02;;;;;;;12.57;10.30;;;8.30;99.90;;;;;;4974039;28;20474;-82
2022/06/02 01:13:06;;;;;;;15.88;12.35;;;8.30;99.90;;;;;;4972953;28;20034;-82
2022/06/02 01:15:56;;;;;;;15.05;11.43;;;8.30;99.90;;;;;;4987415;28;20057;-82
2022/06/02 01:18:22;;;;;;;16.05;11.60;;;8.30;99.90;;;;;;4971002;28;20137;-82
2022/06/02 01:21:16;;;;;;;16.20;11.68;;;8.20;99.90;;;;;;4970677;28;20125;-83
2022/06/02 01:24:02;;;;;;;15.23;11.80;;;8.20;99.90;;;;;;4971259;28;20038;-82
2022/06/02 01:26:30;;;;;;;15.85;12.00;;;8.20;99.90;;;;;;4987686;28;20124;-82
2022/06/02 01:29:22;;;;;;;15.98;12.35;;;8.20;99.90;;;;;;4989630;28;20095;-82
2022/06/02 01:31:56;;;;;;;17.88;12.02;;;8.20;99.90;;;;;;4966795;28;20046;-82
2022/06/02 01:34:39;;;;;;;16.83;11.98;;;8.20;99.90;;;;;;4983240;28;20072;-83
2022/06/02 01:37:16;;;;;;;20.25;13.32;;;8.20;99.90;;;;;;4971913;28;20061;-82
2022/06/02 01:40:11;;;;;;;17.48;13.48;;;8.10;99.90;;;;;;4970907;28;20053;-82
2022/06/02 01:43:13;;;;;;;17.38;12.82;;;8.10;99.90;;;;;;4968929;28;20048;-82
2022/06/02 01:46:20;;;;;;;18.17;13.03;;;8.10;99.90;;;;;;4953767;28;20061;-83
2022/06/02 01:49:13;;;;;;;16.85;12.60;;;8.10;99.90;;;;;;4988562;28;20487;-82
2022/06/02 01:52:14;;;;;;;18.17;13.85;;;8.10;99.90;;;;;;4988516;28;20054;-82
2022/06/02 01:55:01;;;;;;;17.88;13.50;;;8.00;99.90;;;;;;4928967;28;20043;-82
2022/06/02 01:57:47;;;;;;;18.55;13.35;;;8.00;99.90;;;;;;4987306;28;20076;-82
2022/06/02 02:00:16;;;;;;;20.02;13.55;;;8.00;99.90;;;;;;4989077;28;20038;-82
2022/06/02 02:02:57;;;;;;;19.38;13.90;;;8.00;99.90;;;;;;4986334;28;20301;-82
2022/06/02 02:06:03;;;;;;;20.85;14.40;;;8.00;99.90;;;;;;4986458;28;20041;-83
2022/06/02 02:08:44;;;;;;;20.40;14.15;;;7.90;99.90;;;;;;4971287;28;20034;-83
2022/06/02 02:11:25;;;;;;;19.52;13.52;;;7.90;99.90;;;;;;4970807;28;20096;-83
2022/06/02 02:14:19;;;;;;;21.52;14.55;;;7.90;99.90;;;;;;4982935;28;20276;-83
2022/06/02 02:16:59;;;;;;;21.77;14.48;;;7.90;99.90;;;;;;4984429;28;20041;-82
2022/06/02 02:19:46;;;;;;;19.90;14.32;;;7.90;99.90;;;;;;4985462;28;20045;-82
2022/06/02 02:22:19;;;;;;;19.60;14.00;;;7.90;99.90;;;;;;4986004;28;20053;-83
2022/06/02 02:24:45;;;;;;;;;;;7.90;99.90;;;;;;4974033;28;20100;-83
2022/06/02 02:30:41;;;;;;;23.25;15.52;;;7.90;99.90;;;;;;4987428;28;20042;-83
2022/06/02 02:33:19;;;;;;;17.65;13.77;;;7.80;99.90;;;;;;4985842;28;20099;-83
2022/06/02 02:36:11;;;;;;;17.77;13.52;;;7.80;99.90;;;;;;4971156;28;20042;-83
2022/06/02 02:38:46;;;;;;;21.73;14.57;;;7.80;99.90;;;;;;4943840;28;20057;-83
2022/06/02 02:41:37;;;;;;;19.77;14.07;;;7.80;99.90;;;;;;4988246;28;20049;-83
2022/06/02 02:44:22;;;;;;;18.88;13.75;;;7.80;99.90;;;;;;4971407;28;20403;-83
2022/06/02 02:47:19;;;;;;;17.48;14.15;;;7.80;99.90;;;;;;4984750;28;20108;-83
2022/06/02 02:49:54;;;;;;;19.77;14.15;;;7.80;99.90;;;;;;4985928;28;20065;-82
2022/06/02 02:52:59;;;;;;;20.90;13.90;;;7.70;99.90;;;;;;4986814;28;20043;-83
2022/06/02 02:55:41;;;;;;;21.30;14.13;;;7.70;99.90;;;;;;4983560;28;20061;-83
2022/06/02 02:58:16;;;;;;;19.35;14.38;;;7.70;99.90;;;;;;4986615;28;20072;-83
2022/06/02 03:01:07;;;;;;;21.33;13.98;;;7.70;99.90;;;;;;4969560;28;20105;-83
2022/06/02 03:03:46;;;;;;;20.45;13.80;;;7.70;99.90;;;;;;4984762;28;20080;-83
2022/06/02 03:06:30;;;;;;;23.50;14.45;;;7.60;99.90;;;;;;4972721;28;20141;-84
2022/06/02 03:09:06;;;;;;;21.65;14.77;;;7.60;99.90;;;;;;4987607;28;20066;-84
2022/06/02 03:11:49;;;;;;;23.08;15.32;;;7.60;99.90;;;;;;4987271;28;20577;-84
2022/06/02 03:14:18;;;;;;;21.67;14.15;;;7.60;99.90;;;;;;4984222;28;20539;-83
2022/06/02 03:16:50;;;;;;;21.63;13.52;;;7.60;99.90;;;;;;4972655;28;20042;-83
2022/06/02 03:19:37;;;;;;;21.08;13.73;;;7.60;99.90;;;;;;4983384;28;20066;-83
2022/06/02 03:22:26;;;;;;;23.05;14.52;;;7.50;99.90;;;;;;4988243;28;20259;-83
2022/06/02 03:25:28;;;;;;;21.25;14.85;;;7.50;99.90;;;;;;4968892;28;20141;-83
2022/06/02 03:27:59;;;;;;;24.75;14.48;;;7.50;99.90;;;;;;4968563;28;20049;-84
2022/06/02 03:30:40;;;;;;;22.63;14.23;;;7.50;99.90;;;;;;4985622;28;20049;-83
2022/06/02 03:33:38;;;;;;;20.60;14.40;;;7.50;99.90;;;;;;4969718;28;20057;-84
2022/06/02 03:36:11;;;;;;;18.50;13.80;;;7.50;99.90;;;;;;4967309;28;20534;-84
2022/06/02 03:38:52;;;;;;;18.38;13.55;;;7.40;99.90;;;;;;4983137;28;20085;-84
2022/06/02 03:42:17;;;;;;;21.85;14.60;;;7.50;99.90;;;;;;4971354;28;20446;-83
2022/06/02 03:45:10;;;;;;;18.30;13.32;;;7.40;99.90;;;;;;4912237;28;20050;-84
2022/06/02 03:47:54;;;;;;;19.83;13.93;;;7.40;99.90;;;;;;4984644;28;20091;-84
2022/06/02 03:50:42;;;;;;;21.13;13.90;;;7.40;99.90;;;;;;4986310;28;20042;-84
2022/06/02 03:53:37;;;;;;;20.48;14.38;;;7.40;99.90;;;;;;5000826;28;20220;-84
2022/06/02 03:56:21;;;;;;;22.25;14.23;;;7.40;99.90;;;;;;4983066;28;20056;-83
2022/06/02 03:59:14;;;;;;;21.83;14.43;;;7.40;99.90;;;;;;4971005;28;20034;-84
2022/06/02 04:01:46;;;;;;;22.00;15.98;;;7.40;99.90;;;;;;4972881;28;20096;-85
2022/06/02 04:04:47;;;;;;;23.50;15.30;;;7.40;99.90;;;;;;4982608;28;20681;-85
2022/06/02 04:07:28;;;;;;;23.95;16.23;;;7.40;99.90;;;;;;4950072;28;20513;-84
2022/06/02 04:10:16;;;;;;;22.15;15.02;;;7.50;99.90;;;;;;5001427;28;20479;-84
2022/06/02 04:15:52;;;;;;;25.88;16.17;;;7.50;99.90;;;;;;4988486;28;20626;-85
2022/06/02 04:18:21;;;;;;;27.80;16.33;;;7.50;99.90;;;;;;4975809;28;20052;-86
2022/06/02 04:21:31;;;;;;;23.73;16.60;;;7.60;99.90;;;;;;4970583;28;20287;-85
2022/06/02 04:24:28;;;;;;;24.38;16.25;;;7.60;99.90;;;;;;4970765;28;20126;-86
2022/06/02 04:27:01;;;;;;;26.48;16.75;;;7.60;99.90;;;;;;4991214;28;20045;-86
2022/06/02 04:29:51;;;;;;;23.38;15.57;;;7.60;99.90;;;;;;4972748;28;20042;-86
2022/06/02 04:32:27;;;;;;;22.52;15.57;;;7.70;99.90;;;;;;4991115;28;20046;-85
2022/06/02 04:35:17;;;;;;;30.52;16.60;;;7.70;99.90;;;;;;4974861;28;20042;-85
2022/06/02 04:38:08;;;;;;;22.15;15.27;;;7.70;99.90;;;;;;4975085;28;20062;-85
2022/06/02 04:40:55;;;;;;;22.13;15.10;;;7.80;99.90;;;;;;4987454;28;20057;-84
2022/06/02 04:43:32;;;;;;;23.95;15.52;;;7.80;99.90;;;;;;4974416;28;20046;-85
2022/06/02 04:46:29;;;;;;;21.65;14.52;;;7.80;99.90;;;;;;4972255;28;20030;-85
2022/06/02 04:49:17;;;;;;;20.83;14.95;;;7.90;99.90;;;;;;4985401;28;20037;-86
2022/06/02 04:52:05;;;;;;;23.88;15.68;;;7.90;99.90;;;;;;4990537;28;20037;-86
2022/06/02 04:54:52;;;;;;;21.95;15.05;;;8.00;99.90;;;;;;4990001;28;20507;-86
2022/06/02 04:57:40;;;;;;;21.60;15.65;;;8.10;99.90;;;;;;4973853;28;20042;-86
2022/06/02 05:00:26;;;;;;;21.42;15.13;;;8.10;99.90;;;;;;5001066;28;20108;-86
2022/06/02 05:03:17;;;;;;;21.02;15.25;;;8.20;99.90;;;;;;4989194;28;20090;-86
2022/06/02 05:06:09;;;;;;;22.75;15.80;;;8.20;99.90;;;;;;4986092;28;20257;-86
2022/06/02 05:08:47;;;;;;;22.77;15.32;;;8.30;99.90;;;;;;4986403;28;20034;-85
2022/06/02 05:11:28;;;;;;;22.58;15.52;;;8.30;99.90;;;;;;4987994;28;20060;-85
2022/06/02 05:14:09;;;;;;;23.13;16.15;;;8.40;99.90;;;;;;4980652;28;20046;-86
2022/06/02 05:17:16;;;;;;;22.75;15.15;;;8.50;99.90;;;;;;4986553;28;20137;-86
2022/06/02 05:20:22;;;;;;;27.17;15.38;;;8.50;99.90;;;;;;4987935;28;20068;-85
2022/06/02 05:23:13;;;;;;;21.60;15.45;;;8.60;99.90;;;;;;4987724;28;20057;-85
2022/06/02 05:25:45;;;;;;;18.88;14.70;;;8.70;99.90;;;;;;4985976;28;20092;-84
2022/06/02 05:28:19;;;;;;;20.88;14.80;;;8.70;99.90;;;;;;4969762;28;20081;-85
2022/06/02 05:31:09;;;;;;;19.58;14.38;;;8.70;99.90;;;;;;4966917;28;20064;-85
2022/06/02 05:33:35;;;;;;;22.08;14.93;;;8.80;99.90;;;;;;4961867;28;20049;-85
2022/06/02 05:36:07;;;;;;;24.83;16.77;;;8.90;99.90;;;;;;4977039;28;20064;-84
2022/06/02 05:38:57;;;;;;;24.17;16.07;;;9.00;99.90;;;;;;4987248;28;20065;-85
2022/06/02 05:41:42;;;;;;;18.02;14.10;;;9.00;99.90;;;;;;4992163;28;20041;-84
2022/06/02 05:44:55;;;;;;;21.88;14.98;;;9.10;99.90;;;;;;4971502;28;20046;-83
2022/06/02 05:47:37;;;;;;;17.38;13.38;;;9.20;99.90;;;;;;4895867;29;20546;-84
2022/06/02 05:50:57;;;;;;;24.10;15.03;;;9.30;99.90;;;;;;4972151;28;20042;-82
2022/06/02 05:53:41;;;;;;;20.38;14.73;;;9.30;99.90;;;;;;4904112;29;20052;-83
2022/06/02 05:56:30;;;;;;;19.70;14.10;;;9.50;99.90;;;;;;4963844;28;20050;-81
2022/06/02 05:59:34;;;;;;;17.98;12.32;;;9.50;99.90;;;;;;4993071;28;20514;-83
2022/06/02 06:02:25;;;;;;;18.98;12.65;;;9.60;99.90;;;;;;4992929;28;20053;-83
2022/06/02 06:05:10;;;;;;;19.75;13.32;;;9.70;99.90;;;;;;4936120;28;20046;-82
2022/06/02 06:08:11;;;;;;;17.95;12.23;;;9.80;99.90;;;;;;4991027;28;20038;-82
2022/06/02 06:11:02;;;;;;;19.60;12.82;;;9.90;99.90;;;;;;4991430;28;20042;-82
2022/06/02 06:13:52;;;;;;;16.45;12.23;;;10.10;99.90;;;;;;4980411;28;20080;-81
2022/06/02 06:16:22;;;;;;;15.23;12.30;;;10.20;99.90;;;;;;4973967;28;20049;-81
2022/06/02 06:18:56;;;;;;;21.05;13.55;;;10.30;99.90;;;;;;4988533;28;20061;-82
2022/06/02 06:21:29;;;;;;;20.35;13.27;;;10.40;99.90;;;;;;4973985;28;20038;-81
2022/06/02 06:23:58;;;;;;;16.35;12.05;;;10.50;99.90;;;;;;4988024;28;20041;-81
2022/06/02 06:26:53;;;;;;;15.00;11.98;;;10.50;99.90;;;;;;4973571;28;20038;-81
2022/06/02 06:29:31;;;;;;;17.08;12.23;;;10.60;99.90;;;;;;4977332;28;20426;-80
2022/06/02 06:32:21;;;;;;;16.25;12.48;;;10.70;99.90;;;;;;4973566;28;20039;-81
2022/06/02 06:34:57;;;;;;;15.68;10.90;;;10.80;99.90;;;;;;4963054;28;20045;-80
2022/06/02 06:37:27;;;;;;;17.50;12.32;;;10.90;99.90;;;;;;4979344;28;20042;-79
2022/06/02 06:40:32;;;;;;;14.80;10.57;;;11.00;99.90;;;;;;4992957;28;20068;-80
2022/06/02 06:43:09;;;;;;;11.63;9.68;;;11.10;99.90;;;;;;4988983;28;20053;-80
2022/06/02 06:45:56;;;;;;;13.45;10.07;;;11.30;99.90;;;;;;5000989;28;20050;-80
2022/06/02 06:48:30;;;;;;;8.73;7.60;;;11.40;99.90;;;;;;4979750;28;20045;-80
2022/06/02 06:51:21;;;;;;;9.80;6.50;;;11.60;99.90;;;;;;4993197;28;20045;-79
2022/06/02 06:53:50;;;;;;;8.48;4.85;;;11.60;99.90;;;;;;4982183;28;20042;-79
2022/06/02 06:56:21;;;;;;;6.95;5.15;;;11.80;99.90;;;;;;4978244;28;20054;-80
2022/06/02 06:58:58;;;;;;;7.28;5.32;;;11.90;99.90;;;;;;4985155;28;20033;-80
2022/06/02 07:01:47;;;;;;;8.40;5.03;;;11.90;99.90;;;;;;4984837;28;20477;-80
2022/06/02 07:04:41;;;;;;;6.65;4.68;;;12.00;99.90;;;;;;4985789;28;20045;-79
2022/06/02 07:07:09;;;;;;;5.80;5.20;;;12.10;99.90;;;;;;4973506;28;20681;-80
2022/06/02 07:09:43;;;;;;;8.45;5.07;;;12.30;99.90;;;;;;4989577;28;20423;-79
2022/06/02 07:15:17;;;;;;;5.85;4.78;;;12.60;99.90;;;;;;4989216;28;20204;-79
2022/06/02 07:17:58;;;;;;;6.57;5.13;;;12.70;99.90;;;;;;4979138;28;20070;-79
2022/06/02 07:20:41;;;;;;;8.18;4.80;;;12.80;99.90;;;;;;4992345;28;20042;-79
2022/06/02 07:23:27;;;;;;;5.65;5.05;;;13.00;99.90;;;;;;4989438;28;20054;-81
2022/06/02 07:26:23;;;;;;;7.85;4.22;;;13.10;99.90;;;;;;4986561;28;20073;-80
2022/06/02 07:29:03;;;;;;;8.85;4.00;;;13.10;99.90;;;;;;4986287;28;20458;-79
2022/06/02 07:31:38;;;;;;;6.85;4.20;;;13.20;99.90;;;;;;4980333;28;20033;-79
2022/06/02 07:34:24;;;;;;;4.70;3.58;;;13.30;99.90;;;;;;4973415;28;20419;-78
2022/06/02 07:37:21;;;;;;;5.68;4.03;;;13.20;99.90;;;;;;4988857;28;20051;-79
2022/06/02 07:39:58;;;;;;;4.93;4.13;;;13.30;99.90;;;;;;4975520;28;20054;-79
2022/06/02 07:42:47;;;;;;;5.72;4.45;;;13.30;99.90;;;;;;4990462;28;20046;-78
2022/06/02 07:45:16;;;;;;;6.63;3.97;;;13.50;99.90;;;;;;4982482;28;20069;-79
2022/06/02 07:48:22;;;;;;;3.67;3.30;;;13.80;99.90;;;;;;4993846;28;20132;-79
2022/06/02 07:51:17;;;;;;;6.57;3.30;;;13.80;99.90;;;;;;4995801;28;20065;-78
2022/06/02 07:54:06;;;;;;;5.07;3.65;;;13.90;99.90;;;;;;4943118;28;20046;-78
2022/06/02 07:57:00;;;;;;;3.80;2.70;;;13.90;99.90;;;;;;4993146;28;20100;-79
2022/06/02 07:59:43;;;;;;;3.25;2.88;;;13.80;99.90;;;;;;4986196;28;20053;-79
2022/06/02 08:02:35;;;;;;;5.82;3.22;;;13.80;99.90;;;;;;5003588;28;20045;-78
2022/06/02 08:05:22;;;;;;;4.22;3.17;;;13.80;99.90;;;;;;4995435;28;20450;-78
2022/06/02 08:08:00;;;;;;;3.83;2.88;;;13.70;99.90;;;;;;4979675;28;20030;-78
2022/06/02 08:10:52;;;;;;;3.58;3.13;;;13.80;99.90;;;;;;4995299;28;20344;-78
2022/06/02 08:13:36;;;;;;;3.90;2.80;;;14.00;99.90;;;;;;4975380;28;20108;-78
2022/06/02 08:16:10;;;;;;;5.75;2.65;;;14.30;99.90;;;;;;4991244;28;20040;-78
2022/06/02 08:18:54;;;;;;;4.13;3.10;;;14.30;99.90;;;;;;4981992;28;20048;-78
2022/06/02 08:21:45;;;;;;;4.10;2.75;;;14.20;99.90;;;;;;4995130;28;20515;-78
2022/06/02 08:24:44;;;;;;;5.55;2.55;;;14.30;99.90;;;;;;4940379;28;20651;-78
2022/06/02 08:27:12;;;;;;;2.90;2.20;;;14.50;99.90;;;;;;4978873;28;20128;-79
2022/06/02 08:30:01;;;;;;;3.22;2.25;;;14.80;99.90;;;;;;4991701;28;20502;-79
2022/06/02 08:32:54;;;;;;;3.80;2.10;;;14.80;99.90;;;;;;4988359;28;20044;-78
2022/06/02 08:35:20;;;;;;;;;;;14.80;99.90;;;;;;4995309;28;20042;-78
2022/06/02 08:38:07;;;;;;;4.35;2.40;;;15.10;99.90;;;;;;4994944;28;19928;-78
2022/06/02 08:44:45;;;;;;;2.45;1.98;;;15.30;99.90;;;;;;5003770;28;20499;-78
2022/06/02 08:47:33;;;;;;;3.63;2.38;;;15.20;99.90;;;;;;4878663;29;20040;-78
2022/06/02 08:50:26;;;;;;;2.33;2.13;;;15.20;99.90;;;;;;4973816;28;20045;-78
2022/06/02 08:53:18;;;;;;;;;;;15.50;99.90;;;;;;4978895;28;20056;-78
2022/06/02 08:56:11;;;;;;;2.90;2.60;;;15.70;99.90;;;;;;4994344;28;19917;-78
2022/06/02 08:59:14;;;;;;;5.38;2.72;;;15.90;99.90;;;;;;4979265;28;20049;-78
2022/06/02 09:01:59;;;;;;;;;;;16.20;99.90;;;;;;4986232;28;20455;-78
2022/06/02 09:04:52;;;;;;;6.20;2.80;;;16.10;99.90;;;;;;4975520;28;20353;-78
2022/06/02 09:07:53;;;;;;;3.47;2.15;;;16.00;99.90;;;;;;4976929;28;20395;-78
2022/06/02 09:10:34;;;;;;;2.55;2.22;;;16.00;99.90;;;;;;4957389;28;20054;-79
2022/06/02 09:13:38;;;;;;;3.35;2.30;;;15.90;99.90;;;;;;4979276;28;20045;-78
2022/06/02 09:16:27;;;;;;;3.97;2.03;;;15.70;99.90;;;;;;4972321;28;20046;-79
2022/06/02 09:19:14;;;;;;;6.97;2.30;;;15.70;99.90;;;;;;4990075;28;20042;-78
2022/06/02 09:21:57;;;;;;;3.92;2.25;;;16.00;99.90;;;;;;4967802;28;20038;-78
2022/06/02 09:24:46;;;;;;;5.43;2.72;;;16.30;99.90;;;;;;5006119;28;20149;-78
2022/06/02 09:27:43;;;;;;;3.53;2.50;;;16.10;99.90;;;;;;4972252;28;20125;-78
2022/06/02 09:30:19;;;;;;;4.38;2.40;;;16.10;99.90;;;;;;4977643;28;20042;-78
2022/06/02 09:33:33;;;;;;;3.90;2.72;;;16.30;99.90;;;;;;4990111;28;20034;-78
2022/06/02 09:36:14;;;;;;;2.95;2.65;;;16.50;99.90;;;;;;4946835;28;20526;-78
2022/06/02 09:38:47;;;;;;;4.97;2.58;;;16.70;99.90;;;;;;5000463;28;20051;-78
2022/06/02 09:41:19;;;;;;;6.07;2.40;;;16.90;99.90;;;;;;4977921;28;20042;-78
2022/06/02 09:44:31;;;;;;;3.92;2.10;;;17.00;99.90;;;;;;4977427;28;20077;-78
2022/06/02 09:47:15;;;;;;;4.22;2.30;;;16.90;99.90;;;;;;4886827;29;20566;-80
2022/06/02 09:49:51;;;;;;;2.80;2.22;;;16.80;99.90;;;;;;5001474;28;20050;-79
2022/06/02 09:52:32;;;;;;;3.17;2.08;;;16.80;99.90;;;;;;4993646;28;20041;-78
2022/06/02 09:55:28;;;;;;;3.03;2.10;;;17.00;99.90;;;;;;4992843;28;20044;-78
2022/06/02 09:58:41;;;;;;;2.70;2.50;;;17.20;99.80;;;;;;4975847;28;20053;-78
2022/06/02 10:01:22;;;;;;;4.00;2.50;;;17.40;99.90;;;;;;4967108;28;20049;-77
2022/06/02 10:03:57;;;;;;;4.18;2.22;;;17.50;98.50;;;;;;4977001;28;20045;-78
2022/06/02 10:06:51;;;;;;;5.20;2.33;;;17.30;99.60;;;;;;4993460;28;20080;-78
2022/06/02 10:09:22;;;;;;;6.45;2.80;;;17.10;99.50;;;;;;4996251;28;20034;-78
2022/06/02 10:15:34;;;;;;;4.15;2.38;;;16.90;99.60;;;;;;4989474;28;20046;-78
2022/06/02 10:18:34;;;;;;;4.63;2.97;;;17.40;99.30;;;;;;4965494;28;20125;-78
2022/06/02 10:21:06;;;;;;;3.15;2.30;;;17.60;98.20;;;;;;4992968;28;20465;-78
2022/06/02 10:23:57;;;;;;;3.17;2.58;;;18.00;99.10;;;;;;4976897;28;20104;-78
2022/06/02 10:26:44;;;;;;;2.58;2.10;;;18.30;98.40;;;;;;4989842;28;20050;-78
2022/06/02 10:29:43;;;;;;;3.30;2.33;;;18.30;96.60;;;;;;4989338;28;20391;-76
2022/06/02 10:32:36;;;;;;;3.70;2.30;;;18.20;96.90;;;;;;4973888;28;20504;-77
2022/06/02 10:35:20;;;;;;;3.00;2.10;;;17.80;96.70;;;;;;4962904;28;20169;-77
2022/06/02 10:38:06;;;;;;;3.13;2.33;;;17.40;97.10;;;;;;4975817;28;20053;-77
2022/06/02 10:41:05;;;;;;;2.17;1.70;;;17.30;97.80;;;;;;4981655;28;20080;-77
2022/06/02 10:44:06;;;;;;;4.20;2.10;;;17.60;97.60;;;;;;4965901;28;20049;-77
2022/06/02 10:46:48;;;;;;;2.58;2.00;;;17.90;97.60;;;;;;4909893;29;20498;-77
2022/06/02 10:49:15;;;;;;;;;;;18.00;97.00;;;;;;4984537;28;20244;-77
2022/06/02 10:51:59;;;;;;;2.60;2.10;;;17.90;96.40;;;;;;4992361;28;19921;-77
2022/06/02 10:55:03;;;;;;;8.75;2.53;;;17.70;97.40;;;;;;4992510;28;20057;-77
2022/06/02 10:57:41;;;;;;;2.60;2.40;;;17.50;97.00;;;;;;5010098;28;20100;-77
2022/06/02 11:00:31;;;;;;;3.15;2.10;;;17.30;98.00;;;;;;4991688;28;20125;-77
2022/06/02 11:03:34;;;;;;;4.07;2.70;;;17.20;97.90;;;;;;4976569;28;20077;-76
2022/06/02 11:06:09;;;;;;;2.67;2.17;;;17.10;97.70;;;;;;4997004;28;20046;-76
2022/06/02 11:09:08;;;;;;;9.68;2.63;;;17.00;98.30;;;;;;4992459;28;20100;-77
2022/06/02 11:11:34;;;;;;;2.95;2.40;;;17.10;97.90;;;;;;4968291;28;20037;-77
2022/06/02 11:14:17;;;;;;;3.60;2.25;;;17.60;98.50;;;;;;4980125;28;20107;-77
2022/06/02 11:16:43;;;;;;;2.83;2.05;;;18.20;96.70;;;;;;4976352;28;20107;-78
2022/06/02 11:19:40;;;;;;;2.65;2.00;;;18.30;96.70;;;;;;4974363;28;20065;-78
2022/06/02 11:22:25;;;;;;;2.50;2.10;;;18.30;95.80;;;;;;4977305;28;20393;-78
2022/06/02 11:25:08;;;;;;;2.72;2.30;;;17.90;95.80;;;;;;4980127;28;20065;-78
2022/06/02 11:28:11;;;;;;;2.80;2.38;;;17.80;96.90;;;;;;4994592;28;20068;-78
2022/06/02 11:31:08;;;;;;;2.72;2.10;;;17.60;96.90;;;;;;4978460;28;20039;-78
2022/06/02 11:33:56;;;;;;;2.97;2.08;;;17.40;96.80;;;;;;4971229;28;20038;-78
2022/06/02 11:36:37;;;;;;;5.78;2.00;;;17.20;97.30;;;;;;4996021;28;20042;-78
2022/06/02 11:39:24;;;;;;;2.22;2.03;;;17.20;97.60;;;;;;4979812;28;20049;-78
2022/06/02 11:42:07;;;;;;;2.30;2.10;;;17.60;97.90;;;;;;5008710;28;20526;-77
2022/06/02 11:45:09;;;;;;;2.42;2.20;;;18.10;97.40;;;;;;4994050;28;20550;-78
2022/06/02 11:48:16;;;;;;;4.38;2.05;;;18.60;97.90;;;;;;4995841;28;20084;-77
2022/06/02 11:50:54;;;;;;;3.10;1.65;;;19.20;97.30;;;;;;5009355;28;20053;-78
2022/06/02 11:53:59;;;;;;;1.90;1.67;;;19.50;96.50;;;;;;5011466;28;20049;-79
2022/06/02 11:56:37;;;;;;;1.55;1.30;;;19.80;95.30;;;;;;4978130;28;20095;-78
2022/06/02 11:59:53;;;;;;;2.72;1.88;;;19.70;94.10;;;;;;4995655;28;20042;-78
2022/06/02 12:02:31;;;;;;;1.90;1.50;;;19.20;93.50;;;;;;4917027;29;20130;-78
2022/06/02 12:04:56;;;;;;;3.92;1.73;;;19.00;93.50;;;;;;4917068;29;20047;-78
2022/06/02 12:07:53;;;;;;;2.60;1.90;;;18.70;94.70;;;;;;4936644;28;20052;-78
2022/06/02 12:10:52;;;;;;;2.63;1.80;;;18.50;94.10;;;;;;4981961;28;20396;-78
2022/06/02 12:13:26;;;;;;;2.75;1.70;;;18.50;93.90;;;;;;4982238;28;20433;-77
2022/06/02 12:16:13;;;;;;;3.05;2.00;;;18.40;95.30;;;;;;4982751;28;20107;-78
2022/06/02 12:18:57;;;;;;;2.58;2.00;;;18.40;95.90;;;;;;4982891;28;20550;-78
2022/06/02 12:22:01;;;;;;;2.40;1.70;;;18.50;96.80;;;;;;4981736;28;20041;-78
2022/06/02 12:25:04;;;;;;;2.33;1.77;;;18.90;96.50;;;;;;4984233;28;20416;-78
2022/06/02 12:27:33;;;;;;;;;;;19.20;96.40;;;;;;4981282;28;20037;-78
2022/06/02 12:30:38;;;;;;;2.58;1.60;;;19.20;94.30;;;;;;5000174;28;19918;-77
2022/06/02 12:33:13;;;;;;;2.22;1.65;;;19.00;94.60;;;;;;4927376;28;20505;-78
2022/06/02 12:36:13;;;;;;;4.40;1.60;;;18.80;94.70;;;;;;4984126;28;20495;-77
2022/06/02 12:39:18;;;;;;;1.58;1.48;;;19.10;95.40;;;;;;4982917;28;20100;-78
2022/06/02 12:41:56;;;;;;;2.38;1.55;;;19.50;94.90;;;;;;4969987;28;20042;-78
2022/06/02 12:45:01;;;;;;;1.60;1.50;;;19.90;94.60;;;;;;4970335;28;20046;-80
2022/06/02 12:47:45;;;;;;;3.53;1.73;;;20.20;93.50;;;;;;4966340;28;20042;-80
2022/06/02 12:50:17;;;;;;;3.03;1.80;;;20.00;92.30;;;;;;4985423;28;20044;-81
2022/06/02 12:53:14;;;;;;;2.65;1.95;;;19.80;93.30;;;;;;4987325;28;20727;-82
2022/06/02 12:55:55;;;;;;;2.45;1.50;;;19.90;92.50;;;;;;4986003;28;20041;-82
2022/06/02 12:58:48;;;;;;;2.50;1.80;;;20.00;94.00;;;;;;4983129;28;20052;-82
2022/06/02 13:01:20;;;;;;;2.58;1.70;;;19.80;93.30;;;;;;4999384;28;20042;-82
2022/06/02 13:04:04;;;;;;;2.20;1.50;;;19.60;93.80;;;;;;4981132;28;20042;-82
2022/06/02 13:07:04;;;;;;;2.22;1.70;;;19.40;93.60;;;;;;4983471;28;20046;-82
2022/06/02 13:09:54;;;;;;;4.43;1.60;;;19.10;93.40;;;;;;4982905;28;20034;-82
2022/06/02 13:12:28;;;;;;;1.60;1.38;;;18.90;93.80;;;;;;4966991;28;20128;-81
2022/06/02 13:15:25;;;;;;;2.42;1.40;;;18.80;94.20;;;;;;4967880;28;20519;-82
2022/06/02 13:18:33;;;;;;;1.50;1.40;;;18.90;94.60;;;;;;4981022;28;20566;-79
2022/06/02 13:21:22;;;;;;;1.23;1.10;;;19.20;93.90;;;;;;4911861;29;20043;-79
2022/06/02 13:24:06;;;;;;;2.67;1.42;;;19.50;93.00;;;;;;4909296;29;20039;-79
2022/06/02 13:27:13;;;;;;;2.72;1.42;;;19.90;92.80;;;;;;4952776;28;20077;-79
2022/06/02 13:29:51;;;;;;;2.60;1.63;;;20.30;91.70;;;;;;4975592;28;20431;-79
2022/06/02 13:32:39;;;;;;;1.23;1.13;;;20.30;91.80;;;;;;4993458;28;20041;-79
2022/06/02 13:35:41;;;;;;;1.48;1.38;;;20.50;92.30;;;;;;4993813;28;20419;-80
2022/06/02 13:38:19;;;;;;;1.38;1.27;;;20.40;91.10;;;;;;4991541;28;20049;-80
2022/06/02 13:41:06;;;;;;;1.75;1.60;;;20.10;91.70;;;;;;4974871;28;20038;-79
2022/06/02 13:43:46;;;;;;;2.33;1.60;;;19.90;92.00;;;;;;4980603;28;20554;-79
2022/06/02 13:46:42;;;;;;;0.98;0.93;;;19.70;92.60;;;;;;4976207;28;20394;-79
2022/06/02 13:49:32;;;;;;;1.38;1.27;;;19.50;91.90;;;;;;4967554;28;20034;-80
2022/06/02 13:52:26;;;;;;;1.48;1.38;;;19.20;92.00;;;;;;4993738;28;20040;-80
2022/06/02 13:58:12;;;;;;;1.83;1.50;;;19.10;92.70;;;;;;4991184;28;20092;-80
2022/06/02 14:01:05;;;;;;;1.90;1.58;;;19.10;93.30;;;;;;4976943;28;20041;-80
2022/06/02 14:04:00;;;;;;;2.00;1.60;;;19.00;93.00;;;;;;4976379;28;21011;-79
2022/06/02 14:06:30;;;;;;;1.58;1.48;;;18.90;93.20;;;;;;4988822;28;20491;-79
2022/06/02 14:09:20;;;;;;;3.05;1.70;;;18.90;93.60;;;;;;4976220;28;20026;-79
2022/06/02 14:11:50;;;;;;;2.10;1.90;;;19.10;94.00;;;;;;4992383;28;20105;-79
2022/06/02 14:14:29;;;;;;;2.60;1.50;;;19.30;93.10;;;;;;4991069;28;20447;-79
2022/06/02 14:17:25;;;;;;;1.60;1.50;;;19.40;91.80;;;;;;4977297;28;20049;-79
2022/06/02 14:20:16;;;;;;;4.30;1.23;;;19.30;93.20;;;;;;4976210;28;20099;-79
2022/06/02 14:22:57;;;;;;;1.88;1.60;;;19.20;92.50;;;;;;4987999;28;20061;-80
2022/06/02 14:25:32;;;;;;;4.15;1.92;;;19.10;92.50;;;;;;4981223;28;20384;-79
2022/06/02 14:28:12;;;;;;;7.03;1.70;;;19.00;92.60;;;;;;4986325;28;20038;-79
2022/06/02 14:31:12;;;;;;;2.67;1.40;;;18.90;92.10;;;;;;4989819;28;20040;-79
2022/06/02 14:33:43;;;;;;;1.80;1.50;;;19.00;92.50;;;;;;4890710;28;20517;-76
2022/06/02 14:36:29;;;;;;;3.10;1.75;;;19.40;92.70;;;;;;4991344;28;20050;-79
2022/06/02 14:39:06;;;;;;;2.47;1.50;;;19.90;91.90;;;;;;4985052;28;20069;-79
2022/06/02 14:41:44;;;;;;;3.53;1.20;;;20.20;91.70;;;;;;4991245;28;20049;-80
2022/06/02 14:44:40;;;;;;;1.60;1.50;;;20.60;91.20;;;;;;4988135;28;20502;-80